Date,TemperatureHighF,TemperatureAvgF,TemperatureLowF,DewpointHighF,DewpointAvgF,DewpointLowF,HumidityHigh,HumidityAvg,HumidityLow,PressureMaxIn,PressureMinIn,WindSpeedMaxMPH,WindSpeedAvgMPH,GustSpeedMaxMPH,PrecipitationSumIn
2013-1-1,46,44,41,41,37,34,82,77,72,29.93,29.37,13,8,22,0.04
2013-1-2,52,47,44,51,45,40,98,93,83,30.11,29.90,10,4,17,0.17
2013-1-3,53,51,49,51,49,45,98,92,84,30.40,30.08,13,5,20,0.04
2013-1-4,51,48,45,48,45,42,96,89,83,30.46,30.37,6,3,15,0.04
2013-1-5,50,46,43,49,44,42,98,93,88,30.40,30.31,6,1,9,0.00
2013-1-6,52,47,43,51,46,42,98,96,92,30.34,30.16,3,2,8,0.00
2013-1-7,50,47,44,49,46,43,98,97,94,30.16,29.99,3,2,8,0.04
2013-1-8,51,48,40,50,46,39,98,98,98,30.11,29.96,5,2,9,0.29
2013-1-9,40,37,33,39,36,32,98,98,98,30.14,29.96,2,1,5,0.04
2013-1-10,38,36,34,37,35,34,98,98,98,29.99,29.84,3,1,7,0.00
2013-1-11,41,38,35,40,36,34,98,98,98,29.99,29.84,6,2,10,0.04
2013-1-12,40,36,32,37,34,29,98,93,82,29.99,29.78,10,5,18,0.12
2013-1-13,36,32,27,35,31,26,98,97,93,30.11,29.96,3,1,7,0.05
2013-1-14,40,36,34,39,35,31,98,96,81,29.99,29.60,10,4,28,0.34
2013-1-15,37,32,28,35,30,26,98,91,77,29.84,29.66,6,2,10,0.04
2013-1-16,33,30,26,31,28,25,95,92,88,29.93,29.75,5,3,9,0.00
2013-1-17,35,32,30,31,29,27,94,88,77,29.96,29.72,11,5,21,0.00
2013-1-18,34,32,29,31,28,25,93,86,79,29.72,29.37,13,9,25,0.00
2013-1-19,35,32,28,32,28,24,90,85,82,29.54,29.37,9,4,16,0.00
2013-1-20,35,34,33,32,30,27,89,83,79,29.54,29.31,12,4,18,0.00
2013-1-21,35,33,32,34,32,30,98,97,89,29.34,29.22,6,3,10,0.16
2013-1-22,38,34,32,35,31,27,98,91,75,29.69,29.34,7,5,13,0.04
2013-1-23,36,34,33,34,31,28,93,88,81,29.81,29.66,6,3,10,0.05
2013-1-24,38,34,30,33,28,22,88,81,71,29.99,29.78,5,2,9,0.05
2013-1-25,35,32,28,33,27,21,98,84,71,29.99,29.37,9,4,20,0.16
2013-1-26,43,38,33,42,38,32,98,98,98,29.63,29.13,8,3,18,1.00
2013-1-27,49,44,40,47,36,28,98,76,52,29.34,28.90,17,9,30,0.25
2013-1-28,51,44,39,47,35,29,95,70,51,29.49,29.07,18,9,38,0.04
2013-1-29,56,50,45,52,42,33,94,76,52,29.40,29.13,16,7,31,0.04
2013-1-30,49,46,43,42,38,31,84,72,52,29.75,29.25,18,10,39,0.00
2013-1-31,48,45,43,39,36,34,82,70,65,29.75,29.46,14,8,25,0.13
2013-2-1,47,43,38,39,35,32,96,76,64,29.63,29.28,12,5,22,0.12
2013-2-2,41,36,30,32,28,25,86,73,54,30.14,29.63,10,3,15,0.04
2013-2-3,49,43,31,47,40,26,98,90,81,30.14,29.66,12,6,21,0.04
2013-2-4,49,45,36,46,37,31,98,75,60,29.75,29.49,16,12,35,0.08
2013-2-5,44,39,35,41,34,28,98,83,67,29.49,29.16,19,12,31,0.21
2013-2-6,42,40,37,37,28,23,82,64,52,30.05,29.34,15,9,28,0.04
2013-2-7,40,37,34,38,32,26,97,84,68,30.05,29.87,7,2,13,0.04
2013-2-8,44,40,35,41,36,34,98,88,70,30.08,29.96,9,4,15,0.04
2013-2-9,40,39,37,39,37,35,98,96,85,30.08,29.72,5,2,9,0.17
2013-2-10,39,38,35,38,37,34,98,98,98,29.72,29.19,13,7,20,0.37
2013-2-11,38,36,34,34,31,26,98,84,66,29.75,29.25,13,7,23,0.04
2013-2-12,38,36,32,29,26,24,77,68,57,29.99,29.75,6,2,12,0.00
2013-2-13,40,35,33,39,30,23,98,84,64,29.99,29.63,9,5,22,0.41
2013-2-14,47,43,40,45,42,39,98,94,87,29.84,29.60,11,5,21,0.59
2013-2-15,48,43,36,44,40,34,96,88,83,30.08,29.84,11,4,16,0.04
2013-2-16,49,40,33,44,36,32,98,87,71,30.11,29.96,4,2,10,0.00
2013-2-17,48,40,34,39,32,27,94,76,49,30.05,29.90,6,3,17,0.00
2013-2-18,47,39,35,33,31,28,85,72,54,30.05,29.90,6,4,15,0.00
2013-2-19,46,36,29,39,32,26,93,83,66,30.05,29.90,6,2,9,0.00
2013-2-20,40,36,32,37,30,23,92,78,63,30.16,30.02,9,5,18,0.00
2013-2-21,40,35,33,23,21,18,66,56,47,30.19,30.08,10,6,20,0.00
2013-2-22,38,35,33,23,20,18,58,54,52,30.14,30.08,9,4,17,0.00
2013-2-23,40,36,33,30,27,20,78,71,59,30.19,30.08,5,2,8,0.00
2013-2-24,41,36,33,28,26,25,76,69,57,30.25,30.19,6,3,13,0.00
2013-2-26,44,41,39,34,32,30,74,71,68,30.52,30.43,8,5,12,0.00
2013-2-27,49,39,34,33,30,27,76,71,53,30.52,30.40,6,2,9,0.00
2013-2-28,47,36,28,34,29,23,87,74,51,30.46,30.25,6,2,9,0.00
2013-3-1,47,43,35,36,31,23,79,62,49,30.37,30.25,7,3,10,0.00
2013-3-2,47,38,27,38,30,20,83,74,62,30.37,30.14,6,2,12,0.00
2013-3-3,49,41,31,40,32,28,92,74,55,30.16,29.96,5,2,15,0.00
2013-3-4,48,41,36,32,29,26,78,63,49,29.99,29.60,9,4,15,0.00
2013-3-5,53,41,31,39,32,26,85,72,55,29.66,29.37,6,2,12,0.00
2013-3-6,50,43,37,39,36,32,87,79,65,29.52,29.37,10,6,15,0.00
2013-3-7,50,45,41,47,41,38,96,86,70,29.46,29.25,12,7,18,0.12
2013-3-8,47,43,41,44,41,40,97,92,80,29.49,29.28,12,8,20,0.16
2013-3-9,42,40,36,41,39,35,98,97,94,29.66,29.49,9,5,15,0.16
2013-3-10,40,36,29,35,26,15,98,72,43,29.84,29.66,15,8,28,0.16
2013-3-11,36,30,26,23,17,14,77,58,43,29.93,29.81,15,6,26,0.04
2013-3-12,42,33,24,31,21,15,76,61,46,29.96,29.72,10,5,20,0.00
2013-3-13,44,38,31,32,26,22,78,64,44,29.90,29.72,9,3,16,0.00
2013-3-14,44,36,24,35,28,18,89,73,55,29.93,29.66,10,3,16,0.00
2013-3-15,47,42,38,44,38,34,95,87,73,29.69,29.28,6,3,13,0.00
2013-3-16,44,40,38,43,38,36,98,93,81,29.28,29.10,5,2,10,0.54
2013-3-17,43,39,35,40,37,34,98,93,78,29.16,29.01,6,3,12,0.25
2013-3-18,45,37,30,41,34,29,98,87,73,29.31,29.10,9,3,14,0.05
2013-3-19,45,38,30,38,32,25,89,80,68,29.48,29.31,7,2,12,0.00
2013-3-20,45,39,34,35,31,27,85,74,61,29.87,29.45,8,5,13,0.00
2013-3-21,44,37,30,30,26,23,83,66,50,29.93,29.72,18,9,31,0.00
2013-3-22,35,34,33,34,32,28,98,96,74,29.78,29.67,19,14,33,0.37
2013-3-23,36,34,33,34,31,25,98,90,73,29.96,29.72,14,11,26,0.33
2013-3-24,39,35,32,25,21,18,73,57,46,29.99,29.84,17,12,30,0.04
2013-3-25,40,36,33,22,20,18,58,52,43,30.01,29.93,16,10,30,0.00
2013-3-26,39,36,33,25,21,19,64,55,45,29.99,29.84,14,7,25,0.00
2013-3-27,40,35,29,28,22,18,70,59,51,29.93,29.78,12,5,21,0.00
2013-3-28,43,36,28,28,22,16,77,57,42,29.93,29.79,12,5,24,0.00
2013-3-29,45,35,26,23,18,13,70,52,39,29.87,29.66,10,4,15,0.00
2013-3-30,46,36,27,28,20,16,68,52,38,29.87,29.75,7,3,14,0.00
2013-3-31,46,36,25,25,18,-100,72,52,38,29.93,29.72,9,4,18,0.00
2013-4-1,44,37,31,27,20,16,70,52,40,29.87,29.73,13,7,21,0.00
2013-4-2,48,38,27,29,20,14,70,50,37,30.05,29.85,11,4,17,0.00
2013-4-3,49,39,27,29,21,18,72,50,33,30.11,29.95,12,5,21,0.00
2013-4-4,49,40,31,29,22,18,76,51,30,30.05,29.87,14,6,22,0.00
2013-4-5,47,40,31,30,24,21,74,54,39,30.11,29.96,10,4,16,0.00
2013-4-6,47,39,27,27,22,16,69,52,42,30.19,30.05,9,2,13,0.00
2013-4-7,54,41,29,32,25,21,77,55,36,30.13,29.73,8,2,14,0.00
2013-4-8,51,42,36,26,24,22,64,50,37,29.77,29.44,13,10,24,0.00
2013-4-9,54,43,35,30,27,23,71,54,36,29.49,29.32,14,9,22,0.00
2013-4-10,52,43,31,33,28,21,72,56,47,29.57,29.37,6,3,14,0.00
2013-4-11,47,43,39,38,34,28,82,71,53,29.40,29.25,8,6,16,0.00
2013-4-12,54,46,41,44,39,37,87,78,61,29.57,29.22,8,4,14,0.00
2013-4-13,56,47,38,52,40,34,95,79,46,29.66,29.49,7,4,17,0.08
2013-4-14,61,57,53,52,46,38,95,70,46,29.54,29.43,12,7,30,0.08
2013-4-15,63,57,52,45,40,35,69,54,36,29.69,29.54,13,7,23,0.04
2013-4-16,60,54,49,44,38,32,80,55,40,29.83,29.49,15,8,26,0.00
2013-4-17,63,54,45,52,41,34,91,64,46,29.81,29.26,17,7,31,0.04
2013-4-18,56,51,47,42,37,33,84,60,45,29.83,29.26,21,14,35,0.04
2013-4-19,53,47,39,42,36,29,87,66,48,30.33,29.83,12,7,21,0.00
2013-4-20,61,48,34,41,32,27,83,57,35,30.34,30.09,7,3,13,0.00
2013-4-21,51,48,42,45,35,25,85,62,43,30.11,29.75,6,3,14,0.00
2013-4-22,57,50,40,47,41,34,83,70,56,29.83,29.61,10,5,20,0.00
2013-4-23,57,53,47,44,42,38,86,69,49,30.02,29.72,10,6,18,0.00
2013-4-24,62,52,47,49,44,40,85,73,57,30.08,29.91,14,5,20,0.00
2013-4-25,54,49,45,47,43,40,93,78,71,30.08,29.91,9,4,18,0.00
2013-4-26,51,46,41,42,37,32,92,72,49,29.98,29.75,13,7,24,0.00
2013-4-27,53,44,34,37,31,28,84,60,39,29.96,29.79,11,4,20,0.00
2013-4-28,53,47,38,47,36,28,91,68,52,29.93,29.61,12,6,24,0.00
2013-4-29,54,48,43,38,37,35,75,66,52,30.02,29.66,13,9,26,0.00
2013-4-30,56,48,41,40,35,30,78,61,42,30.16,30.02,7,4,13,0.00
2013-5-1,58,50,39,39,35,30,73,57,37,30.16,29.98,10,4,16,0.00
2013-5-2,63,51,36,43,33,28,84,53,27,30.13,29.87,6,2,9,0.00
2013-5-3,59,53,45,44,37,31,74,56,47,29.98,29.72,13,5,23,0.16
2013-5-4,57,53,49,46,40,34,82,63,43,29.87,29.66,12,8,23,0.16
2013-5-5,65,56,47,49,42,36,84,62,44,29.95,29.84,10,5,21,0.00
2013-5-6,69,56,44,45,40,36,78,55,37,29.96,29.72,7,2,12,0.00
2013-5-7,76,62,45,47,40,35,73,47,30,29.87,29.54,9,4,17,0.00
2013-5-8,65,58,50,52,41,33,75,54,40,29.60,29.31,13,7,20,0.00
2013-5-9,54,50,45,45,39,32,85,66,49,29.52,29.19,15,7,25,0.08
2013-5-10,59,51,48,48,41,-100,96,75,50,29.60,29.31,14,9,25,0.13
2013-5-11,55,48,44,47,39,34,96,72,49,29.69,29.49,14,6,24,0.16
2013-5-12,53,50,45,52,44,-100,97,84,58,29.78,29.60,14,7,26,0.30
2013-5-13,54,50,46,47,36,31,89,61,44,29.69,29.49,16,10,28,0.04
2013-5-14,57,50,45,37,34,32,67,55,41,29.52,29.13,10,6,21,0.00
2013-5-15,54,47,42,45,41,36,98,81,56,29.37,29.07,16,7,28,0.87
2013-5-16,61,47,42,46,22,-100,89,64,41,29.40,29.25,7,3,13,0.04
2013-5-17,58,51,47,44,38,-100,86,67,48,29.69,29.40,7,3,12,0.00
2013-5-18,50,49,47,49,46,42,96,91,74,29.69,29.54,10,4,15,0.09
2013-5-19,60,53,45,53,47,44,98,82,55,29.81,29.63,8,2,14,0.05
2013-5-20,60,55,52,52,50,47,89,82,70,29.84,29.72,10,6,14,0.00
2013-5-21,56,53,49,53,47,42,95,82,61,29.96,29.84,10,6,17,0.00
2013-5-22,56,52,47,45,38,31,84,62,41,29.96,29.84,18,11,29,0.00
2013-5-23,52,47,40,41,34,30,95,64,44,29.87,29.72,17,9,29,0.08
2013-5-24,56,50,45,36,33,31,64,52,40,29.99,29.66,13,8,25,0.04
2013-5-25,62,52,39,42,34,31,79,53,34,30.05,29.87,7,3,13,0.00
2013-5-26,64,54,40,45,38,33,80,57,45,30.02,29.69,8,3,13,0.00
2013-5-27,57,51,44,46,40,33,77,67,47,29.69,29.37,11,5,23,0.08
2013-5-28,56,51,47,51,46,41,98,83,71,29.46,29.37,10,5,16,0.17
2013-5-29,63,55,46,53,47,40,88,76,58,29.72,29.46,10,5,17,0.13
2013-5-30,64,58,53,53,50,45,95,77,59,29.87,29.66,9,5,15,0.04
2013-5-31,63,56,48,52,46,39,95,70,48,29.99,29.84,14,6,18,0.04
2013-6-1,60,54,48,46,41,38,76,62,47,30.16,29.99,13,7,18,0.00
2013-6-2,62,56,48,43,40,38,72,57,44,30.28,30.14,8,5,13,0.00
2013-6-3,69,59,45,51,43,40,86,58,38,30.31,30.16,8,6,13,0.00
2013-6-4,77,65,49,49,43,40,76,48,31,30.25,29.90,9,5,10,0.00
2013-6-5,73,63,50,49,44,40,75,51,36,30.05,29.78,10,6,13,0.00
2013-6-6,76,62,50,50,45,41,76,55,35,30.02,29.81,8,6,13,0.00
2013-6-7,76,65,50,49,45,40,72,49,35,30.11,29.90,9,6,13,0.00
2013-6-8,75,65,51,46,42,38,67,45,33,30.08,29.81,7,4,10,0.00
2013-6-9,74,63,48,46,43,40,74,50,36,29.90,29.63,6,3,12,0.00
2013-6-10,72,61,50,44,41,38,69,50,35,29.81,29.54,7,5,14,0.00
2013-6-11,71,59,49,54,46,37,77,63,48,29.69,29.46,11,6,20,0.00
2013-6-12,65,61,58,57,54,47,91,76,57,29.52,29.40,10,5,17,0.00
2013-6-13,60,57,54,55,50,44,93,76,55,29.72,29.37,12,7,21,0.00
2013-6-14,64,57,52,56,50,46,91,77,61,29.75,29.43,12,5,21,0.00
2013-6-15,63,56,50,49,44,40,85,65,44,29.52,29.34,14,7,26,0.00
2013-6-16,68,60,55,51,47,43,84,62,43,29.72,29.52,11,6,25,0.00
2013-6-17,72,64,58,51,47,42,73,56,39,29.78,29.66,7,4,12,0.00
2013-6-18,76,64,51,50,46,42,73,54,39,29.81,29.60,7,3,12,0.00
2013-6-19,67,62,57,55,47,40,82,58,45,29.81,29.72,10,5,15,0.00